Terminal Aerodrome Forecast
Issued by NWS Memphis, TN

Home | Current Version | Previous Version | Text Only | Print | Product List | Glossary On
Versions: 1 2 3 4 5 6 7 8 9 10 11 12 13 14 15
000
FTUS44 KMEG 292300
TAFMKL
TAF
KMKL 292323Z 3000/3024 00000KT P6SM FEW250
      TEMPO 3008/3012 4SM BR
     FM301500 22004KT P6SM FEW150 BKN250
     FM302300 29006KT P6SM FEW070 BKN150=

USA.gov is the U.S. government's official web portal to all federal, state and local government web resources and services.